createdAt,value
2023-03-29T00:01:35.105Z,101039.31
2023-03-29T00:04:02.915Z,101041.94
2023-03-29T00:06:29.233Z,101047.13
2023-03-29T00:08:55.408Z,101040.25
2023-03-29T00:11:21.512Z,101033.38
2023-03-29T00:13:47.705Z,101025.59
2023-03-29T00:16:13.935Z,101026.44
2023-03-29T00:18:40.117Z,101029.09
2023-03-29T00:21:06.286Z,101031.75
2023-03-29T00:23:32.416Z,101023.94
2023-03-29T00:25:58.595Z,101018.88
2023-03-29T00:28:24.799Z,101005.34
2023-03-29T00:30:51.010Z,101022.41
2023-03-29T00:33:17.167Z,101035.38
2023-03-29T00:35:43.339Z,101026.81
2023-03-29T00:38:09.478Z,101025.94
2023-03-29T00:40:35.612Z,101019.09
2023-03-29T00:43:01.789Z,101019.91
2023-03-29T00:45:27.927Z,101019.84
2023-03-29T00:47:54.185Z,101019.78
2023-03-29T00:50:20.393Z,101006.81
2023-03-29T00:52:46.566Z,101012.03
2023-03-29T00:55:12.705Z,101004.94
2023-03-29T00:57:38.912Z,101002.34
2023-03-29T01:00:05.174Z,100991.06
2023-03-29T01:02:31.464Z,100994.59
2023-03-29T01:04:57.725Z,100996.25
2023-03-29T01:07:23.952Z,100987.72
2023-03-29T01:09:50.159Z,100988.56
2023-03-29T01:12:16.282Z,100983.47
2023-03-29T01:14:42.471Z,100987.66
2023-03-29T01:17:08.650Z,100979.09
2023-03-29T01:19:34.804Z,100975.63
2023-03-29T01:22:00.940Z,100971.38
2023-03-29T01:24:27.094Z,100970.47
2023-03-29T01:26:53.264Z,100960.75
2023-03-29T01:29:19.424Z,100955.59
2023-03-29T01:31:45.639Z,100960.00
2023-03-29T01:34:11.969Z,100951.31
2023-03-29T01:36:38.143Z,100943.53
2023-03-29T01:39:04.362Z,100946.13
2023-03-29T01:41:30.515Z,100942.72
2023-03-29T01:43:56.658Z,100937.38
2023-03-29T01:46:22.806Z,100941.69
2023-03-29T01:48:48.984Z,100951.22
2023-03-29T01:51:15.158Z,100946.88
2023-03-29T01:53:41.335Z,100946.13
2023-03-29T01:56:07.515Z,100954.72
2023-03-29T01:58:33.649Z,100935.88
2023-03-29T02:01:00.129Z,100935.88
2023-03-29T02:03:26.575Z,100932.47
2023-03-29T02:05:52.852Z,100929.03
2023-03-29T02:08:19.019Z,100919.47
2023-03-29T02:10:45.190Z,100914.09
2023-03-29T02:13:11.353Z,100918.38
2023-03-29T02:15:37.481Z,100909.81
2023-03-29T02:18:03.718Z,100911.59
2023-03-29T02:20:29.910Z,100906.31
2023-03-29T02:22:56.047Z,100902.91
2023-03-29T02:25:22.177Z,100895.00
2023-03-29T02:27:48.384Z,100890.69
2023-03-29T02:30:14.514Z,100894.88
2023-03-29T02:32:40.675Z,100889.78
2023-03-29T02:35:06.865Z,100885.38
2023-03-29T02:37:33.031Z,100887.13
2023-03-29T02:39:59.196Z,100879.44
2023-03-29T02:42:25.351Z,100884.50
2023-03-29T02:44:51.485Z,100879.22
2023-03-29T02:47:17.710Z,100894.56
2023-03-29T02:49:43.901Z,100892.19
2023-03-29T02:52:10.072Z,100897.38
2023-03-29T02:54:36.278Z,100890.34
2023-03-29T02:57:02.485Z,100892.03
2023-03-29T02:59:28.652Z,100869.91
2023-03-29T03:01:54.847Z,100885.25
2023-03-29T03:04:21.019Z,100881.69
2023-03-29T03:06:47.150Z,100881.63
2023-03-29T03:09:13.302Z,100875.38
2023-03-29T03:11:39.468Z,100877.16
2023-03-29T03:14:05.640Z,100878.78
2023-03-29T03:16:31.869Z,100873.66
2023-03-29T03:18:58.038Z,100875.22
2023-03-29T03:21:24.206Z,100883.81
2023-03-29T03:23:50.415Z,100876.81
2023-03-29T03:26:16.611Z,100874.22
2023-03-29T03:28:42.776Z,100877.59
2023-03-29T03:31:08.955Z,100873.44
2023-03-29T03:33:35.149Z,100872.47
2023-03-29T03:36:01.296Z,100866.66
2023-03-29T03:38:27.447Z,100871.88
2023-03-29T03:40:53.583Z,100865.75
2023-03-29T03:43:19.723Z,100863.09
2023-03-29T03:45:45.907Z,100861.50
2023-03-29T03:48:12.149Z,100860.84
2023-03-29T03:50:38.342Z,100859.19
2023-03-29T03:53:04.477Z,100853.81
2023-03-29T03:55:30.645Z,100850.50
2023-03-29T03:57:56.811Z,100855.06
2023-03-29T04:00:22.969Z,100847.22
2023-03-29T04:02:49.262Z,100844.63
2023-03-29T04:05:15.521Z,100853.47
2023-03-29T04:07:41.659Z,100848.25
2023-03-29T04:10:07.842Z,100852.72
2023-03-29T04:12:33.959Z,100848.34
2023-03-29T04:15:00.196Z,100847.91
2023-03-29T04:17:26.385Z,100861.13
2023-03-29T04:19:52.595Z,100853.31
2023-03-29T04:22:18.769Z,100856.66
2023-03-29T04:24:44.934Z,100863.69
2023-03-29T04:27:11.084Z,100859.63
2023-03-29T04:29:37.243Z,100863.09
2023-03-29T04:32:03.378Z,100866.63
2023-03-29T04:34:29.534Z,100869.31
2023-03-29T04:36:55.736Z,100865.13
2023-03-29T04:39:21.880Z,100866.75
2023-03-29T04:41:48.010Z,100844.31
2023-03-29T04:44:14.286Z,100857.16
2023-03-29T04:46:40.557Z,100860.78
2023-03-29T04:49:06.804Z,100859.84
2023-03-29T04:51:32.962Z,100860.47
2023-03-29T04:53:59.088Z,100859.66
2023-03-29T04:56:25.507Z,100853.53
2023-03-29T04:58:51.692Z,100852.59
2023-03-29T05:01:17.849Z,100859.50
2023-03-29T05:03:44.075Z,100854.31
2023-03-29T05:06:10.222Z,100860.38
2023-03-29T05:08:36.439Z,100853.53
2023-03-29T05:11:02.728Z,100856.03
2023-03-29T05:13:29.034Z,100860.38
2023-03-29T05:15:55.266Z,100853.50
2023-03-29T05:18:21.460Z,100857.03
2023-03-29T05:20:47.630Z,100861.94
2023-03-29T05:23:13.805Z,100859.13
2023-03-29T05:25:40.273Z,100852.22
2023-03-29T05:28:06.421Z,100856.59
2023-03-29T05:30:32.614Z,100867.59
2023-03-29T05:32:58.829Z,100858.94
2023-03-29T05:35:25.060Z,100858.03
2023-03-29T05:37:51.281Z,100863.25
2023-03-29T05:40:17.455Z,100861.38
2023-03-29T05:42:43.648Z,100863.06
2023-03-29T05:45:09.845Z,100856.81
2023-03-29T05:47:36.118Z,100863.97
2023-03-29T05:50:02.363Z,100861.19
2023-03-29T05:52:28.691Z,100864.59
2023-03-29T05:54:54.843Z,100862.69
2023-03-29T05:57:21.011Z,100859.19
2023-03-29T05:59:47.194Z,100856.38
2023-03-29T06:02:13.364Z,100862.38
2023-03-29T06:04:39.597Z,100864.69
2023-03-29T06:07:05.775Z,100863.69
2023-03-29T06:09:31.992Z,100869.50
2023-03-29T06:11:58.196Z,100869.69
2023-03-29T06:14:24.382Z,100865.97
2023-03-29T06:16:50.625Z,100872.09
2023-03-29T06:19:16.808Z,100865.84
2023-03-29T06:21:43.022Z,100871.75
2023-03-29T06:24:09.181Z,100879.44
2023-03-29T06:26:35.361Z,100871.50
2023-03-29T06:29:01.583Z,100871.53
2023-03-29T06:31:27.887Z,100873.69
2023-03-29T06:33:54.098Z,100881.69
2023-03-29T06:36:20.312Z,100877.53
2023-03-29T06:38:46.500Z,100889.22
2023-03-29T06:41:12.640Z,100875.09
2023-03-29T06:43:38.785Z,100877.47
2023-03-29T06:46:05.036Z,100877.16
2023-03-29T06:48:31.254Z,100876.22
2023-03-29T06:50:57.451Z,100874.31
2023-03-29T06:53:23.644Z,100877.44
2023-03-29T06:55:49.837Z,100879.47
2023-03-29T06:58:15.968Z,100880.03
2023-03-29T07:00:42.132Z,100880.59
2023-03-29T07:03:08.394Z,100884.78
2023-03-29T07:05:34.634Z,100896.41
2023-03-29T07:08:00.923Z,100892.81
2023-03-29T07:10:27.061Z,100890.00
2023-03-29T07:12:53.266Z,100888.75
2023-03-29T07:15:19.416Z,100895.34
2023-03-29T07:17:45.623Z,100886.84
2023-03-29T07:20:11.834Z,100898.47
2023-03-29T07:22:38.011Z,100890.72
2023-03-29T07:25:04.194Z,100898.59
2023-03-29T07:27:30.409Z,100889.59
2023-03-29T07:29:56.645Z,100894.28
2023-03-29T07:32:22.854Z,100889.19
2023-03-29T07:34:49.025Z,100899.25
2023-03-29T07:37:15.195Z,100899.22
2023-03-29T07:39:41.376Z,100897.75
2023-03-29T07:42:07.524Z,100904.75
2023-03-29T07:44:33.695Z,100904.22
2023-03-29T07:46:59.850Z,100906.88
2023-03-29T07:49:26.005Z,100907.81
2023-03-29T07:51:52.180Z,100898.25
2023-03-29T07:54:18.362Z,100898.25
2023-03-29T07:56:44.544Z,100895.84
2023-03-29T07:59:10.697Z,100906.88
2023-03-29T08:01:36.925Z,100899.31
2023-03-29T08:04:03.229Z,100904.75
2023-03-29T08:06:29.423Z,100908.25
2023-03-29T08:08:55.579Z,100905.50
2023-03-29T08:11:21.702Z,100908.69
2023-03-29T08:13:47.850Z,100902.66
2023-03-29T08:16:13.997Z,100904.31
2023-03-29T08:18:40.267Z,100882.44
2023-03-29T08:21:06.408Z,100900.97
2023-03-29T08:23:32.574Z,100893.44
2023-03-29T08:25:58.768Z,100899.63
2023-03-29T08:28:24.902Z,100889.63
2023-03-29T08:30:51.172Z,100891.16
2023-03-29T08:33:17.433Z,100896.53
2023-03-29T08:35:43.798Z,100883.56
2023-03-29T08:38:10.061Z,100889.69
2023-03-29T08:40:36.259Z,100880.06
2023-03-29T08:43:02.422Z,100881.47
2023-03-29T08:45:28.546Z,100890.97
2023-03-29T08:47:54.789Z,100895.72
2023-03-29T08:50:20.972Z,100891.19
2023-03-29T08:52:47.163Z,100883.38
2023-03-29T08:55:13.315Z,100891.06
2023-03-29T08:57:39.571Z,100885.72
2023-03-29T09:00:05.759Z,100885.78
2023-03-29T09:02:32.034Z,100886.88
2023-03-29T09:04:58.280Z,100889.50
2023-03-29T09:07:26.542Z,100895.47
2023-03-29T09:09:52.849Z,100891.06
2023-03-29T09:12:19.009Z,100892.28
2023-03-29T09:14:45.213Z,100886.66
2023-03-29T09:17:11.417Z,100883.00
2023-03-29T09:19:37.621Z,100875.91
2023-03-29T09:22:03.808Z,100883.09
2023-03-29T09:24:29.985Z,100880.25
2023-03-29T09:26:56.169Z,100881.25
2023-03-29T09:29:22.332Z,100869.56
2023-03-29T09:31:48.552Z,100863.03
2023-03-29T09:34:15.860Z,100861.97
2023-03-29T09:36:42.372Z,100851.22
2023-03-29T09:39:08.522Z,100842.81
2023-03-29T09:41:34.662Z,100850.50
2023-03-29T09:44:00.840Z,100849.34
2023-03-29T09:46:26.973Z,100851.78
2023-03-29T09:48:53.185Z,100862.50
2023-03-29T09:51:19.376Z,100857.72
2023-03-29T09:53:45.506Z,100855.69
2023-03-29T09:56:11.712Z,100860.25
2023-03-29T09:58:37.874Z,100850.13
2023-03-29T10:01:04.194Z,100848.38
2023-03-29T10:03:30.490Z,100853.19
2023-03-29T10:05:56.682Z,100847.28
2023-03-29T10:08:22.840Z,100845.16
2023-03-29T10:10:49.053Z,100842.91
2023-03-29T10:13:15.189Z,100832.72
2023-03-29T10:15:41.361Z,100825.94
2023-03-29T10:18:07.620Z,100825.94
2023-03-29T10:20:33.884Z,100832.34
2023-03-29T10:23:00.070Z,100821.91
2023-03-29T10:25:26.257Z,100830.19
2023-03-29T10:27:52.478Z,100810.09
2023-03-29T10:30:18.649Z,100816.97
2023-03-29T10:32:44.827Z,100803.16
2023-03-29T10:35:11.029Z,100797.78
2023-03-29T10:37:37.155Z,100797.84
2023-03-29T10:40:03.279Z,100789.72
2023-03-29T10:42:29.429Z,100794.59
2023-03-29T10:44:55.634Z,100790.44
2023-03-29T10:47:21.766Z,100780.34
2023-03-29T10:49:48.178Z,100786.25
2023-03-29T10:52:14.423Z,100783.28
2023-03-29T10:54:40.645Z,100772.16
2023-03-29T10:57:06.873Z,100769.59
2023-03-29T10:59:33.014Z,100772.25
2023-03-29T11:02:00.362Z,100757.88
2023-03-29T11:04:26.643Z,100756.28
2023-03-29T11:06:52.855Z,100757.16
2023-03-29T11:09:22.642Z,100747.59
2023-03-29T11:11:48.827Z,100755.47
2023-03-29T11:14:14.949Z,100758.34
2023-03-29T11:16:41.100Z,100762.91
2023-03-29T11:19:13.196Z,100759.81
2023-03-29T11:21:39.402Z,100758.78
2023-03-29T11:24:05.539Z,100766.56
2023-03-29T11:26:31.691Z,100743.31
2023-03-29T11:28:57.886Z,100740.16
2023-03-29T11:31:24.093Z,100732.84
2023-03-29T11:33:50.240Z,100729.59
2023-03-29T11:36:16.453Z,100748.63
2023-03-29T11:38:45.105Z,100749.13
2023-03-29T11:41:11.528Z,100739.41
2023-03-29T11:43:37.752Z,100729.03
2023-03-29T11:46:04.018Z,100741.16
2023-03-29T11:48:30.298Z,100749.94
2023-03-29T11:50:56.476Z,100734.19
2023-03-29T11:53:22.690Z,100729.88
2023-03-29T11:55:48.861Z,100729.41
2023-03-29T11:58:15.052Z,100725.50
2023-03-29T12:00:41.290Z,100727.47
2023-03-29T12:03:07.556Z,100718.56
2023-03-29T12:05:33.826Z,100720.63
2023-03-29T12:08:00.048Z,100719.50
2023-03-29T12:10:26.239Z,100714.84
2023-03-29T12:12:52.417Z,100707.00
2023-03-29T12:15:18.647Z,100711.59
2023-03-29T12:17:44.917Z,100706.47
2023-03-29T12:20:11.105Z,100702.41
2023-03-29T12:22:37.248Z,100694.66
2023-03-29T12:25:03.425Z,100689.00
2023-03-29T12:27:29.596Z,100680.50
2023-03-29T12:29:55.782Z,100675.34
2023-03-29T12:32:22.151Z,100675.09
2023-03-29T12:34:48.449Z,100669.66
2023-03-29T12:37:14.672Z,100688.53
2023-03-29T12:39:40.811Z,100683.13
2023-03-29T12:42:07.034Z,100671.59
2023-03-29T12:44:33.179Z,100666.53
2023-03-29T12:46:59.352Z,100665.00
2023-03-29T12:49:25.530Z,100661.75
2023-03-29T12:51:51.657Z,100663.75
2023-03-29T12:54:17.862Z,100663.03
2023-03-29T12:56:44.101Z,100654.19
2023-03-29T12:59:10.285Z,100653.09
2023-03-29T13:01:36.570Z,100663.13
2023-03-29T13:04:02.852Z,100671.41
2023-03-29T13:06:29.012Z,100663.97
2023-03-29T13:08:55.140Z,100660.44
2023-03-29T13:11:21.424Z,100658.31
2023-03-29T13:13:47.706Z,100664.09
2023-03-29T13:16:13.939Z,100659.63
2023-03-29T13:18:40.214Z,100653.97
2023-03-29T13:21:06.408Z,100661.31
2023-03-29T13:23:32.582Z,100658.78
2023-03-29T13:25:58.775Z,100660.09
2023-03-29T13:28:24.955Z,100662.53
2023-03-29T13:30:51.097Z,100663.56
2023-03-29T13:33:17.253Z,100664.38
2023-03-29T13:35:43.459Z,100657.75
2023-03-29T13:38:09.657Z,100638.22
2023-03-29T13:40:35.874Z,100636.31
2023-03-29T13:43:02.025Z,100642.44
2023-03-29T13:45:28.198Z,100632.19
2023-03-29T13:48:04.715Z,100640.09
2023-03-29T13:50:31.844Z,100644.31
2023-03-29T13:52:58.028Z,100646.53
2023-03-29T13:55:24.214Z,100640.00
2023-03-29T13:57:50.377Z,100629.84
2023-03-29T14:00:16.586Z,100634.03
2023-03-29T14:02:42.959Z,100628.38
2023-03-29T14:05:09.242Z,100622.63
2023-03-29T14:07:35.494Z,100632.94
2023-03-29T14:10:01.708Z,100631.75
2023-03-29T14:12:27.912Z,100634.50
2023-03-29T14:14:59.301Z,100622.31
2023-03-29T14:17:25.830Z,100618.78
2023-03-29T14:19:52.022Z,100613.09
2023-03-29T14:22:18.187Z,100611.41
2023-03-29T14:24:44.311Z,100629.03
2023-03-29T14:27:10.491Z,100615.09
2023-03-29T14:29:38.942Z,100615.94
2023-03-29T14:32:05.099Z,100616.34
2023-03-29T14:34:31.285Z,100614.00
2023-03-29T14:36:57.548Z,100627.59
2023-03-29T14:39:23.762Z,100620.88
2023-03-29T14:41:49.905Z,100617.53
2023-03-29T14:44:16.084Z,100612.09
2023-03-29T14:46:42.316Z,100594.75
2023-03-29T14:49:08.546Z,100601.31
2023-03-29T14:51:34.876Z,100599.97
2023-03-29T14:54:01.070Z,100592.47
2023-03-29T14:56:27.235Z,100588.34
2023-03-29T14:58:53.395Z,100579.63
2023-03-29T15:01:19.642Z,100579.38
2023-03-29T15:03:45.865Z,100580.84
2023-03-29T15:06:12.055Z,100571.41
2023-03-29T15:08:38.241Z,100560.22
2023-03-29T15:11:04.429Z,100562.63
2023-03-29T15:13:30.591Z,100553.72
2023-03-29T15:15:56.784Z,100557.75
2023-03-29T15:18:22.980Z,100562.56
2023-03-29T15:20:49.236Z,100564.19
2023-03-29T15:23:15.420Z,100559.44
2023-03-29T15:25:41.608Z,100565.22
2023-03-29T15:28:07.761Z,100564.94
2023-03-29T15:30:33.966Z,100559.66
2023-03-29T15:33:00.254Z,100561.88
2023-03-29T15:35:26.497Z,100564.81
2023-03-29T15:37:52.651Z,100565.59
2023-03-29T15:40:18.852Z,100568.84
2023-03-29T15:42:45.067Z,100561.53
2023-03-29T15:45:11.204Z,100565.72
2023-03-29T15:47:37.386Z,100564.38
2023-03-29T15:50:03.580Z,100562.97
2023-03-29T15:52:29.736Z,100560.16
2023-03-29T15:54:55.892Z,100561.56
2023-03-29T15:57:22.109Z,100558.41
2023-03-29T15:59:48.383Z,100552.78
2023-03-29T16:02:14.565Z,100558.59
2023-03-29T16:04:40.739Z,100550.72
2023-03-29T16:07:06.885Z,100552.75
2023-03-29T16:09:33.052Z,100554.53
2023-03-29T16:11:59.214Z,100556.97
2023-03-29T16:14:25.475Z,100553.88
2023-03-29T16:16:51.831Z,100555.56
2023-03-29T16:19:18.498Z,100559.69
2023-03-29T16:21:44.680Z,100560.72
2023-03-29T16:24:10.840Z,100552.94
2023-03-29T16:26:37.035Z,100549.88
2023-03-29T16:29:03.204Z,100550.72
2023-03-29T16:31:29.350Z,100544.91
2023-03-29T16:33:55.564Z,100537.84
2023-03-29T16:36:21.779Z,100541.41
2023-03-29T16:38:47.974Z,100534.28
2023-03-29T16:41:14.142Z,100531.84
2023-03-29T16:43:40.299Z,100519.09
2023-03-29T16:46:06.782Z,100513.72
2023-03-29T16:48:33.235Z,100522.28
2023-03-29T16:50:59.345Z,100514.31
2023-03-29T16:53:25.500Z,100514.38
2023-03-29T16:55:51.673Z,100516.47
2023-03-29T16:58:17.821Z,100515.91
2023-03-29T17:00:46.394Z,100512.72
2023-03-29T17:03:14.265Z,100512.38
2023-03-29T17:05:40.479Z,100510.03
2023-03-29T17:08:06.684Z,100508.66
2023-03-29T17:10:32.827Z,100501.81
2023-03-29T17:12:59.005Z,100483.72
2023-03-29T17:15:25.146Z,100491.25
2023-03-29T17:17:51.503Z,100495.00
2023-03-29T17:20:17.729Z,100502.03
2023-03-29T17:22:43.920Z,100484.16
2023-03-29T17:25:10.077Z,100485.91
2023-03-29T17:27:36.235Z,100481.53
2023-03-29T17:30:02.393Z,100474.69
2023-03-29T17:32:28.622Z,100484.16
2023-03-29T17:34:54.813Z,100482.78
2023-03-29T17:37:20.935Z,100479.41
2023-03-29T17:39:47.151Z,100476.13
2023-03-29T17:42:13.282Z,100485.22
2023-03-29T17:44:39.428Z,100488.78
2023-03-29T17:47:05.796Z,100487.75
2023-03-29T17:49:33.514Z,100473.31
2023-03-29T17:51:59.732Z,100466.94
2023-03-29T17:54:25.939Z,100461.22
2023-03-29T17:56:52.115Z,100471.53
2023-03-29T17:59:18.330Z,100458.59
2023-03-29T18:01:44.605Z,100459.31
2023-03-29T18:04:10.791Z,100455.53
2023-03-29T18:06:36.918Z,100460.97
2023-03-29T18:09:03.152Z,100459.31
2023-03-29T18:11:29.318Z,100456.03
2023-03-29T18:13:55.506Z,100462.47
2023-03-29T18:16:21.774Z,100461.78
2023-03-29T18:18:48.350Z,100468.25
2023-03-29T18:21:14.490Z,100471.25
2023-03-29T18:23:40.685Z,100478.75
2023-03-29T18:26:06.847Z,100479.13
2023-03-29T18:28:32.974Z,100474.06
2023-03-29T18:30:59.132Z,100469.00
2023-03-29T18:33:25.339Z,100469.09
2023-03-29T18:35:51.754Z,100484.06
2023-03-29T18:38:18.048Z,100487.63
2023-03-29T18:40:44.257Z,100477.31
2023-03-29T18:43:10.447Z,100485.00
2023-03-29T18:45:36.684Z,100480.19
2023-03-29T18:48:02.957Z,100477.75
2023-03-29T18:50:29.123Z,100473.69
2023-03-29T18:52:55.236Z,100477.94
2023-03-29T18:55:21.368Z,100482.50
2023-03-29T18:57:47.547Z,100469.03
2023-03-29T19:00:13.954Z,100469.59
2023-03-29T19:02:40.307Z,100455.19
2023-03-29T19:05:06.563Z,100454.91
2023-03-29T19:07:32.738Z,100452.59
2023-03-29T19:09:58.945Z,100452.31
2023-03-29T19:12:25.099Z,100453.63
2023-03-29T19:14:51.295Z,100443.69
2023-03-29T19:17:17.555Z,100444.72
2023-03-29T19:19:43.761Z,100444.00
2023-03-29T19:22:09.946Z,100439.94
2023-03-29T19:24:36.184Z,100434.94
2023-03-29T19:27:02.371Z,100430.44
2023-03-29T19:29:28.534Z,100427.88
2023-03-29T19:31:54.815Z,100422.56
2023-03-29T19:34:21.054Z,100416.00
2023-03-29T19:36:47.184Z,100416.53
2023-03-29T19:39:13.384Z,100414.66
2023-03-29T19:41:41.398Z,100413.00
2023-03-29T19:44:08.125Z,100416.91
2023-03-29T19:46:34.304Z,100399.69
2023-03-29T19:49:00.486Z,100398.66
2023-03-29T19:51:26.655Z,100407.84
2023-03-29T19:53:52.778Z,100394.53
2023-03-29T19:56:18.897Z,100392.75
2023-03-29T19:58:45.094Z,100395.84
2023-03-29T20:01:11.300Z,100388.06
2023-03-29T20:03:37.485Z,100388.53
2023-03-29T20:06:03.856Z,100363.38
2023-03-29T20:08:30.057Z,100370.94
2023-03-29T20:10:56.236Z,100370.66
2023-03-29T20:13:35.420Z,100363.19
2023-03-29T20:16:04.722Z,100372.63
2023-03-29T20:18:30.976Z,100359.22
2023-03-29T20:20:57.204Z,100354.91
2023-03-29T20:23:23.396Z,100350.50
2023-03-29T20:25:49.580Z,100341.63
2023-03-29T20:28:15.724Z,100336.84
2023-03-29T20:30:41.899Z,100338.03
2023-03-29T20:33:08.141Z,100327.94
2023-03-29T20:35:34.440Z,100338.25
2023-03-29T20:38:00.624Z,100328.59
2023-03-29T20:40:26.830Z,100326.28
2023-03-29T20:42:52.994Z,100321.53
2023-03-29T20:45:19.208Z,100315.72
2023-03-29T20:47:45.453Z,100318.16
2023-03-29T20:50:11.674Z,100327.69
2023-03-29T20:52:37.883Z,100318.25
2023-03-29T20:55:04.046Z,100296.69
2023-03-29T20:57:30.663Z,100317.31
2023-03-29T20:59:56.875Z,100318.03
2023-03-29T21:02:23.081Z,100317.88
2023-03-29T21:04:49.297Z,100317.22
2023-03-29T21:07:15.457Z,100321.91
2023-03-29T21:09:41.598Z,100315.03
2023-03-29T21:12:07.754Z,100307.28
2023-03-29T21:14:33.898Z,100302.81
2023-03-29T21:17:00.050Z,100300.25
2023-03-29T21:19:26.231Z,100302.16
2023-03-29T21:21:52.398Z,100290.25
2023-03-29T21:24:18.605Z,100292.41
2023-03-29T21:26:45.015Z,100290.09
2023-03-29T21:29:11.226Z,100280.41
2023-03-29T21:31:37.617Z,100277.34
2023-03-29T21:34:03.826Z,100272.13
2023-03-29T21:36:30.002Z,100273.13
2023-03-29T21:38:56.472Z,100265.47
2023-03-29T21:41:22.649Z,100264.44
2023-03-29T21:43:48.828Z,100268.72
2023-03-29T21:46:17.165Z,100269.56
2023-03-29T21:48:43.447Z,100271.06
2023-03-29T21:51:09.657Z,100280.78
2023-03-29T21:53:35.935Z,100275.38
2023-03-29T21:56:02.107Z,100266.47
2023-03-29T21:58:28.334Z,100273.03
2023-03-29T22:00:54.550Z,100278.81
2023-03-29T22:03:20.883Z,100277.22
2023-03-29T22:05:47.109Z,100273.94
2023-03-29T22:08:13.326Z,100268.44
2023-03-29T22:10:39.552Z,100275.19
2023-03-29T22:13:05.734Z,100266.13
2023-03-29T22:15:31.905Z,100275.56
2023-03-29T22:17:59.714Z,100274.91
2023-03-29T22:20:26.194Z,100266.03
2023-03-29T22:22:52.395Z,100279.38
2023-03-29T22:25:18.625Z,100279.38
2023-03-29T22:27:44.781Z,100274.91
2023-03-29T22:30:13.921Z,100277.72
2023-03-29T22:35:43.828Z,100283.81
2023-03-29T22:38:16.168Z,100282.19
2023-03-29T22:40:54.055Z,100281.53
2023-03-29T22:43:27.572Z,100268.44
2023-03-29T22:48:39.571Z,100270.84
2023-03-29T22:51:14.798Z,100269.84
2023-03-29T22:53:51.695Z,100275.94
2023-03-29T22:56:20.279Z,100273.59
2023-03-29T23:07:08.459Z,100289.13
2023-03-29T23:10:25.994Z,100290.16
2023-03-29T23:18:11.623Z,100272.09
2023-03-29T23:20:51.570Z,100269.75
2023-03-29T23:23:25.974Z,100267.50
2023-03-29T23:25:57.999Z,100277.69
2023-03-29T23:28:28.956Z,100285.25
2023-03-29T23:30:56.351Z,100283.22
2023-03-29T23:33:29.197Z,100277.38
2023-03-29T23:35:56.664Z,100270.56
2023-03-29T23:38:56.071Z,100275.16
2023-03-29T23:41:25.893Z,100264.78
2023-03-29T23:44:13.964Z,100252.53
2023-03-29T23:46:43.220Z,100247.31
2023-03-29T23:49:19.548Z,100232.53
2023-03-29T23:54:35.863Z,100194.66
2023-03-29T23:57:23.610Z,100186.09
2023-03-29T23:59:56.670Z,100181.97
